sensor_id;sensor_type;location;lat;lon;timestamp;P1;durP1;ratioP1;P2;durP2;ratioP2
19043;SDS011;9654;52.302;8.120;2023-03-01T00:01:23;17.03;;;9.00;;
19043;SDS011;9654;52.302;8.120;2023-03-01T00:03:52;16.83;;;8.67;;
19043;SDS011;9654;52.302;8.120;2023-03-01T00:06:21;18.23;;;8.77;;
19043;SDS011;9654;52.302;8.120;2023-03-01T00:08:49;17.73;;;9.90;;
19043;SDS011;9654;52.302;8.120;2023-03-01T00:11:16;17.57;;;8.90;;
19043;SDS011;9654;52.302;8.120;2023-03-01T00:13:44;19.10;;;9.40;;
19043;SDS011;9654;52.302;8.120;2023-03-01T00:16:13;15.77;;;9.23;;
19043;SDS011;9654;52.302;8.120;2023-03-01T00:18:41;14.50;;;8.73;;
19043;SDS011;9654;52.302;8.120;2023-03-01T00:21:08;17.93;;;9.13;;
19043;SDS011;9654;52.302;8.120;2023-03-01T00:23:37;13.73;;;9.10;;
19043;SDS011;9654;52.302;8.120;2023-03-01T00:26:05;15.70;;;9.17;;
19043;SDS011;9654;52.302;8.120;2023-03-01T00:28:33;14.50;;;8.43;;
19043;SDS011;9654;52.302;8.120;2023-03-01T00:31:02;15.90;;;8.57;;
19043;SDS011;9654;52.302;8.120;2023-03-01T00:33:30;15.47;;;8.63;;
19043;SDS011;9654;52.302;8.120;2023-03-01T00:35:57;14.03;;;8.53;;
19043;SDS011;9654;52.302;8.120;2023-03-01T00:38:24;12.67;;;7.93;;
19043;SDS011;9654;52.302;8.120;2023-03-01T00:40:53;18.00;;;8.10;;
19043;SDS011;9654;52.302;8.120;2023-03-01T00:43:19;14.70;;;7.70;;
19043;SDS011;9654;52.302;8.120;2023-03-01T00:45:46;15.23;;;9.03;;
19043;SDS011;9654;52.302;8.120;2023-03-01T00:48:13;17.13;;;9.17;;
19043;SDS011;9654;52.302;8.120;2023-03-01T00:50:40;18.87;;;9.30;;
19043;SDS011;9654;52.302;8.120;2023-03-01T00:53:07;16.60;;;9.00;;
19043;SDS011;9654;52.302;8.120;2023-03-01T00:55:33;18.43;;;9.03;;
19043;SDS011;9654;52.302;8.120;2023-03-01T00:58:03;19.80;;;9.67;;
19043;SDS011;9654;52.302;8.120;2023-03-01T01:00:30;16.20;;;9.37;;
19043;SDS011;9654;52.302;8.120;2023-03-01T01:02:57;18.67;;;9.37;;
19043;SDS011;9654;52.302;8.120;2023-03-01T01:05:24;17.90;;;8.87;;
19043;SDS011;9654;52.302;8.120;2023-03-01T01:07:50;16.63;;;8.63;;
19043;SDS011;9654;52.302;8.120;2023-03-01T01:10:17;16.77;;;8.30;;
19043;SDS011;9654;52.302;8.120;2023-03-01T01:12:46;14.67;;;8.13;;
19043;SDS011;9654;52.302;8.120;2023-03-01T01:15:14;15.13;;;8.30;;
19043;SDS011;9654;52.302;8.120;2023-03-01T01:17:41;14.60;;;7.87;;
19043;SDS011;9654;52.302;8.120;2023-03-01T01:20:08;16.27;;;8.03;;
19043;SDS011;9654;52.302;8.120;2023-03-01T01:22:36;16.53;;;9.03;;
19043;SDS011;9654;52.302;8.120;2023-03-01T01:25:03;16.23;;;8.77;;
19043;SDS011;9654;52.302;8.120;2023-03-01T01:27:30;17.90;;;9.30;;
19043;SDS011;9654;52.302;8.120;2023-03-01T01:29:57;20.07;;;8.97;;
19043;SDS011;9654;52.302;8.120;2023-03-01T01:32:25;14.67;;;8.57;;
19043;SDS011;9654;52.302;8.120;2023-03-01T01:34:52;16.37;;;8.57;;
19043;SDS011;9654;52.302;8.120;2023-03-01T01:37:18;19.40;;;9.63;;
19043;SDS011;9654;52.302;8.120;2023-03-01T01:39:45;17.00;;;8.77;;
19043;SDS011;9654;52.302;8.120;2023-03-01T01:42:12;16.43;;;8.07;;
19043;SDS011;9654;52.302;8.120;2023-03-01T01:44:42;17.27;;;8.70;;
19043;SDS011;9654;52.302;8.120;2023-03-01T01:47:14;14.80;;;8.33;;
19043;SDS011;9654;52.302;8.120;2023-03-01T01:49:46;19.67;;;8.73;;
19043;SDS011;9654;52.302;8.120;2023-03-01T01:52:16;17.73;;;8.43;;
19043;SDS011;9654;52.302;8.120;2023-03-01T01:54:47;20.53;;;9.03;;
19043;SDS011;9654;52.302;8.120;2023-03-01T01:57:18;17.77;;;8.63;;
19043;SDS011;9654;52.302;8.120;2023-03-01T01:59:48;15.33;;;8.13;;
19043;SDS011;9654;52.302;8.120;2023-03-01T02:02:17;13.93;;;7.50;;
19043;SDS011;9654;52.302;8.120;2023-03-01T02:04:47;14.40;;;8.23;;
19043;SDS011;9654;52.302;8.120;2023-03-01T02:07:15;15.33;;;7.60;;
19043;SDS011;9654;52.302;8.120;2023-03-01T02:09:45;14.53;;;7.23;;
19043;SDS011;9654;52.302;8.120;2023-03-01T02:12:13;15.43;;;8.10;;
19043;SDS011;9654;52.302;8.120;2023-03-01T02:14:41;13.77;;;7.30;;
19043;SDS011;9654;52.302;8.120;2023-03-01T02:17:07;14.87;;;7.50;;
19043;SDS011;9654;52.302;8.120;2023-03-01T02:19:39;11.33;;;6.77;;
19043;SDS011;9654;52.302;8.120;2023-03-01T02:22:17;14.90;;;7.83;;
19043;SDS011;9654;52.302;8.120;2023-03-01T02:24:50;10.00;;;6.20;;
19043;SDS011;9654;52.302;8.120;2023-03-01T02:27:27;11.97;;;6.27;;
19043;SDS011;9654;52.302;8.120;2023-03-01T02:30:04;11.83;;;6.63;;
19043;SDS011;9654;52.302;8.120;2023-03-01T02:32:32;10.33;;;5.93;;
19043;SDS011;9654;52.302;8.120;2023-03-01T02:34:59;13.17;;;6.57;;
19043;SDS011;9654;52.302;8.120;2023-03-01T02:37:26;11.10;;;6.03;;
19043;SDS011;9654;52.302;8.120;2023-03-01T02:39:55;11.30;;;6.37;;
19043;SDS011;9654;52.302;8.120;2023-03-01T02:42:26;8.50;;;6.10;;
19043;SDS011;9654;52.302;8.120;2023-03-01T02:44:58;10.87;;;6.30;;
19043;SDS011;9654;52.302;8.120;2023-03-01T02:47:26;9.93;;;6.47;;
19043;SDS011;9654;52.302;8.120;2023-03-01T02:49:53;12.30;;;6.17;;
19043;SDS011;9654;52.302;8.120;2023-03-01T02:52:22;14.10;;;6.60;;
19043;SDS011;9654;52.302;8.120;2023-03-01T02:55:00;11.33;;;6.30;;
19043;SDS011;9654;52.302;8.120;2023-03-01T02:57:29;13.17;;;6.27;;
19043;SDS011;9654;52.302;8.120;2023-03-01T02:59:59;12.27;;;5.77;;
19043;SDS011;9654;52.302;8.120;2023-03-01T03:02:33;13.47;;;6.30;;
19043;SDS011;9654;52.302;8.120;2023-03-01T03:05:05;12.13;;;6.70;;
19043;SDS011;9654;52.302;8.120;2023-03-01T03:07:34;13.83;;;6.20;;
19043;SDS011;9654;52.302;8.120;2023-03-01T03:10:03;16.33;;;6.43;;
19043;SDS011;9654;52.302;8.120;2023-03-01T03:12:31;9.43;;;5.80;;
19043;SDS011;9654;52.302;8.120;2023-03-01T03:14:58;11.17;;;6.10;;
19043;SDS011;9654;52.302;8.120;2023-03-01T03:17:24;10.27;;;5.57;;
19043;SDS011;9654;52.302;8.120;2023-03-01T03:19:53;14.23;;;6.07;;
19043;SDS011;9654;52.302;8.120;2023-03-01T03:22:19;13.37;;;5.97;;
19043;SDS011;9654;52.302;8.120;2023-03-01T03:24:46;11.97;;;6.57;;
19043;SDS011;9654;52.302;8.120;2023-03-01T03:27:13;12.37;;;6.07;;
19043;SDS011;9654;52.302;8.120;2023-03-01T03:29:40;7.80;;;5.40;;
19043;SDS011;9654;52.302;8.120;2023-03-01T03:32:06;10.90;;;6.13;;
19043;SDS011;9654;52.302;8.120;2023-03-01T03:34:34;11.10;;;6.47;;
19043;SDS011;9654;52.302;8.120;2023-03-01T03:37:02;11.57;;;6.13;;
19043;SDS011;9654;52.302;8.120;2023-03-01T03:39:49;11.63;;;6.50;;
19043;SDS011;9654;52.302;8.120;2023-03-01T03:42:19;11.73;;;6.13;;
19043;SDS011;9654;52.302;8.120;2023-03-01T03:44:46;10.13;;;6.00;;
19043;SDS011;9654;52.302;8.120;2023-03-01T03:47:13;10.50;;;6.43;;
19043;SDS011;9654;52.302;8.120;2023-03-01T03:49:40;9.60;;;5.60;;
19043;SDS011;9654;52.302;8.120;2023-03-01T03:52:08;13.77;;;6.30;;
19043;SDS011;9654;52.302;8.120;2023-03-01T03:54:38;12.27;;;6.33;;
19043;SDS011;9654;52.302;8.120;2023-03-01T03:57:05;17.13;;;6.70;;
19043;SDS011;9654;52.302;8.120;2023-03-01T03:59:32;14.20;;;6.50;;
19043;SDS011;9654;52.302;8.120;2023-03-01T04:01:59;14.57;;;6.83;;
19043;SDS011;9654;52.302;8.120;2023-03-01T04:04:25;16.20;;;7.20;;
19043;SDS011;9654;52.302;8.120;2023-03-01T04:06:52;12.30;;;7.00;;
19043;SDS011;9654;52.302;8.120;2023-03-01T04:09:20;11.17;;;6.00;;
19043;SDS011;9654;52.302;8.120;2023-03-01T04:11:47;10.27;;;6.33;;
19043;SDS011;9654;52.302;8.120;2023-03-01T04:14:14;10.90;;;7.07;;
19043;SDS011;9654;52.302;8.120;2023-03-01T04:16:41;13.33;;;6.83;;
19043;SDS011;9654;52.302;8.120;2023-03-01T04:19:07;13.03;;;7.20;;
19043;SDS011;9654;52.302;8.120;2023-03-01T04:21:34;11.30;;;6.73;;
19043;SDS011;9654;52.302;8.120;2023-03-01T04:24:02;10.90;;;6.40;;
19043;SDS011;9654;52.302;8.120;2023-03-01T04:26:30;11.30;;;6.40;;
19043;SDS011;9654;52.302;8.120;2023-03-01T04:28:57;13.27;;;7.17;;
19043;SDS011;9654;52.302;8.120;2023-03-01T04:31:24;9.60;;;6.47;;
19043;SDS011;9654;52.302;8.120;2023-03-01T04:33:51;19.33;;;7.30;;
19043;SDS011;9654;52.302;8.120;2023-03-01T04:36:19;13.13;;;6.97;;
19043;SDS011;9654;52.302;8.120;2023-03-01T04:38:48;11.80;;;7.40;;
19043;SDS011;9654;52.302;8.120;2023-03-01T04:41:16;13.90;;;7.23;;
19043;SDS011;9654;52.302;8.120;2023-03-01T04:43:45;11.13;;;6.80;;
19043;SDS011;9654;52.302;8.120;2023-03-01T04:46:14;13.37;;;7.37;;
19043;SDS011;9654;52.302;8.120;2023-03-01T04:48:42;11.67;;;6.70;;
19043;SDS011;9654;52.302;8.120;2023-03-01T04:51:10;10.83;;;6.20;;
19043;SDS011;9654;52.302;8.120;2023-03-01T04:53:38;11.20;;;6.70;;
19043;SDS011;9654;52.302;8.120;2023-03-01T04:56:06;11.83;;;6.37;;
19043;SDS011;9654;52.302;8.120;2023-03-01T04:58:33;11.27;;;6.90;;
19043;SDS011;9654;52.302;8.120;2023-03-01T05:01:01;13.20;;;7.10;;
19043;SDS011;9654;52.302;8.120;2023-03-01T05:03:40;15.80;;;7.27;;
19043;SDS011;9654;52.302;8.120;2023-03-01T05:06:07;11.47;;;6.43;;
19043;SDS011;9654;52.302;8.120;2023-03-01T05:08:35;13.63;;;7.73;;
19043;SDS011;9654;52.302;8.120;2023-03-01T05:11:03;12.70;;;6.33;;
19043;SDS011;9654;52.302;8.120;2023-03-01T05:13:30;15.50;;;7.37;;
19043;SDS011;9654;52.302;8.120;2023-03-01T05:15:57;16.20;;;7.37;;
19043;SDS011;9654;52.302;8.120;2023-03-01T05:18:27;13.20;;;7.03;;
19043;SDS011;9654;52.302;8.120;2023-03-01T05:20:55;13.63;;;7.60;;
19043;SDS011;9654;52.302;8.120;2023-03-01T05:23:30;10.83;;;6.90;;
19043;SDS011;9654;52.302;8.120;2023-03-01T05:25:57;10.70;;;6.43;;
19043;SDS011;9654;52.302;8.120;2023-03-01T05:28:24;12.73;;;7.23;;
19043;SDS011;9654;52.302;8.120;2023-03-01T05:30:53;9.43;;;6.40;;
19043;SDS011;9654;52.302;8.120;2023-03-01T05:33:19;12.70;;;7.30;;
19043;SDS011;9654;52.302;8.120;2023-03-01T05:35:48;10.63;;;6.43;;
19043;SDS011;9654;52.302;8.120;2023-03-01T05:38:17;13.53;;;6.83;;
19043;SDS011;9654;52.302;8.120;2023-03-01T05:40:45;12.43;;;7.13;;
19043;SDS011;9654;52.302;8.120;2023-03-01T05:43:14;12.70;;;6.40;;
19043;SDS011;9654;52.302;8.120;2023-03-01T05:45:43;14.83;;;7.37;;
19043;SDS011;9654;52.302;8.120;2023-03-01T05:48:10;10.07;;;6.30;;
19043;SDS011;9654;52.302;8.120;2023-03-01T05:50:38;11.60;;;6.77;;
19043;SDS011;9654;52.302;8.120;2023-03-01T05:53:09;10.10;;;6.43;;
19043;SDS011;9654;52.302;8.120;2023-03-01T05:55:37;10.13;;;7.13;;
19043;SDS011;9654;52.302;8.120;2023-03-01T05:58:05;12.23;;;7.17;;
19043;SDS011;9654;52.302;8.120;2023-03-01T06:00:34;10.87;;;7.20;;
19043;SDS011;9654;52.302;8.120;2023-03-01T06:03:01;11.87;;;6.83;;
19043;SDS011;9654;52.302;8.120;2023-03-01T06:05:29;11.47;;;6.80;;
19043;SDS011;9654;52.302;8.120;2023-03-01T06:07:58;11.87;;;7.20;;
19043;SDS011;9654;52.302;8.120;2023-03-01T06:10:26;11.47;;;7.10;;
19043;SDS011;9654;52.302;8.120;2023-03-01T06:12:54;12.43;;;7.27;;
19043;SDS011;9654;52.302;8.120;2023-03-01T06:15:20;9.17;;;6.20;;
19043;SDS011;9654;52.302;8.120;2023-03-01T06:17:48;15.83;;;7.10;;
19043;SDS011;9654;52.302;8.120;2023-03-01T06:20:16;17.23;;;8.23;;
19043;SDS011;9654;52.302;8.120;2023-03-01T06:22:44;15.20;;;7.93;;
19043;SDS011;9654;52.302;8.120;2023-03-01T06:25:13;14.77;;;7.97;;
19043;SDS011;9654;52.302;8.120;2023-03-01T06:27:42;13.77;;;7.47;;
19043;SDS011;9654;52.302;8.120;2023-03-01T06:30:10;12.30;;;8.13;;
19043;SDS011;9654;52.302;8.120;2023-03-01T06:32:39;12.63;;;7.20;;
19043;SDS011;9654;52.302;8.120;2023-03-01T06:35:07;16.03;;;8.23;;
19043;SDS011;9654;52.302;8.120;2023-03-01T06:37:34;12.87;;;7.40;;
19043;SDS011;9654;52.302;8.120;2023-03-01T06:40:01;13.17;;;7.03;;
19043;SDS011;9654;52.302;8.120;2023-03-01T06:42:33;14.30;;;7.97;;
19043;SDS011;9654;52.302;8.120;2023-03-01T06:45:01;14.57;;;8.20;;
19043;SDS011;9654;52.302;8.120;2023-03-01T06:47:29;14.63;;;9.07;;
19043;SDS011;9654;52.302;8.120;2023-03-01T06:49:55;19.27;;;10.07;;
19043;SDS011;9654;52.302;8.120;2023-03-01T06:52:22;19.50;;;10.07;;
19043;SDS011;9654;52.302;8.120;2023-03-01T06:54:49;18.80;;;9.30;;
19043;SDS011;9654;52.302;8.120;2023-03-01T06:57:16;19.87;;;9.73;;
19043;SDS011;9654;52.302;8.120;2023-03-01T06:59:43;18.00;;;10.83;;
19043;SDS011;9654;52.302;8.120;2023-03-01T07:02:11;30.53;;;13.80;;
19043;SDS011;9654;52.302;8.120;2023-03-01T07:04:38;29.63;;;14.40;;
19043;SDS011;9654;52.302;8.120;2023-03-01T07:07:05;39.97;;;18.40;;
19043;SDS011;9654;52.302;8.120;2023-03-01T07:09:32;37.27;;;19.00;;
19043;SDS011;9654;52.302;8.120;2023-03-01T07:11:59;34.73;;;17.57;;
19043;SDS011;9654;52.302;8.120;2023-03-01T07:14:26;36.13;;;18.17;;
19043;SDS011;9654;52.302;8.120;2023-03-01T07:16:53;31.33;;;16.43;;
19043;SDS011;9654;52.302;8.120;2023-03-01T07:19:24;35.83;;;17.57;;
19043;SDS011;9654;52.302;8.120;2023-03-01T07:21:51;34.10;;;18.20;;
19043;SDS011;9654;52.302;8.120;2023-03-01T07:24:17;36.47;;;17.83;;
19043;SDS011;9654;52.302;8.120;2023-03-01T07:26:47;34.73;;;18.90;;
19043;SDS011;9654;52.302;8.120;2023-03-01T07:29:14;31.00;;;16.57;;
19043;SDS011;9654;52.302;8.120;2023-03-01T07:31:41;28.40;;;16.57;;
19043;SDS011;9654;52.302;8.120;2023-03-01T07:34:08;31.03;;;17.43;;
19043;SDS011;9654;52.302;8.120;2023-03-01T07:36:37;31.80;;;16.87;;
19043;SDS011;9654;52.302;8.120;2023-03-01T07:39:04;32.50;;;17.10;;
19043;SDS011;9654;52.302;8.120;2023-03-01T07:41:31;37.47;;;19.10;;
19043;SDS011;9654;52.302;8.120;2023-03-01T07:43:58;35.37;;;18.80;;
19043;SDS011;9654;52.302;8.120;2023-03-01T07:46:25;36.33;;;18.07;;
19043;SDS011;9654;52.302;8.120;2023-03-01T07:48:52;30.90;;;17.77;;
19043;SDS011;9654;52.302;8.120;2023-03-01T07:51:18;28.90;;;16.90;;
19043;SDS011;9654;52.302;8.120;2023-03-01T07:53:47;28.63;;;15.70;;
19043;SDS011;9654;52.302;8.120;2023-03-01T07:56:14;28.73;;;16.30;;
19043;SDS011;9654;52.302;8.120;2023-03-01T07:58:43;24.40;;;15.30;;
19043;SDS011;9654;52.302;8.120;2023-03-01T08:01:12;27.83;;;15.40;;
19043;SDS011;9654;52.302;8.120;2023-03-01T08:03:40;27.57;;;15.30;;
19043;SDS011;9654;52.302;8.120;2023-03-01T08:06:08;24.87;;;14.50;;
19043;SDS011;9654;52.302;8.120;2023-03-01T08:08:36;31.03;;;15.93;;
19043;SDS011;9654;52.302;8.120;2023-03-01T08:11:05;22.37;;;13.90;;
19043;SDS011;9654;52.302;8.120;2023-03-01T08:13:33;27.10;;;15.03;;
19043;SDS011;9654;52.302;8.120;2023-03-01T08:16:00;20.80;;;12.00;;
19043;SDS011;9654;52.302;8.120;2023-03-01T08:18:28;22.67;;;12.70;;
19043;SDS011;9654;52.302;8.120;2023-03-01T08:20:55;22.00;;;10.87;;
19043;SDS011;9654;52.302;8.120;2023-03-01T08:23:22;15.50;;;10.47;;
19043;SDS011;9654;52.302;8.120;2023-03-01T08:25:48;17.53;;;10.10;;
19043;SDS011;9654;52.302;8.120;2023-03-01T08:28:17;16.30;;;9.47;;
19043;SDS011;9654;52.302;8.120;2023-03-01T08:30:43;17.70;;;9.33;;
19043;SDS011;9654;52.302;8.120;2023-03-01T08:33:10;15.87;;;8.77;;
19043;SDS011;9654;52.302;8.120;2023-03-01T08:35:37;20.13;;;9.93;;
19043;SDS011;9654;52.302;8.120;2023-03-01T08:38:03;13.10;;;8.90;;
19043;SDS011;9654;52.302;8.120;2023-03-01T08:40:30;14.53;;;8.43;;
19043;SDS011;9654;52.302;8.120;2023-03-01T08:42:57;14.97;;;8.63;;
19043;SDS011;9654;52.302;8.120;2023-03-01T08:45:25;10.60;;;7.07;;
19043;SDS011;9654;52.302;8.120;2023-03-01T08:47:52;14.03;;;7.70;;
19043;SDS011;9654;52.302;8.120;2023-03-01T08:50:19;13.00;;;7.53;;
19043;SDS011;9654;52.302;8.120;2023-03-01T08:52:46;12.60;;;7.67;;
19043;SDS011;9654;52.302;8.120;2023-03-01T08:55:12;14.53;;;7.00;;
19043;SDS011;9654;52.302;8.120;2023-03-01T08:57:41;13.43;;;7.00;;
19043;SDS011;9654;52.302;8.120;2023-03-01T09:00:08;12.83;;;6.30;;
19043;SDS011;9654;52.302;8.120;2023-03-01T09:02:41;11.73;;;6.47;;
19043;SDS011;9654;52.302;8.120;2023-03-01T09:05:08;10.77;;;6.60;;
19043;SDS011;9654;52.302;8.120;2023-03-01T09:07:35;10.90;;;6.67;;
19043;SDS011;9654;52.302;8.120;2023-03-01T09:10:02;11.97;;;5.87;;
19043;SDS011;9654;52.302;8.120;2023-03-01T09:12:30;13.10;;;7.10;;
19043;SDS011;9654;52.302;8.120;2023-03-01T09:14:56;11.87;;;7.00;;
19043;SDS011;9654;52.302;8.120;2023-03-01T09:17:23;13.13;;;6.57;;
19043;SDS011;9654;52.302;8.120;2023-03-01T09:19:51;9.90;;;6.73;;
19043;SDS011;9654;52.302;8.120;2023-03-01T09:22:18;10.10;;;5.37;;
19043;SDS011;9654;52.302;8.120;2023-03-01T09:24:45;11.17;;;5.37;;
19043;SDS011;9654;52.302;8.120;2023-03-01T09:27:12;13.77;;;5.40;;
19043;SDS011;9654;52.302;8.120;2023-03-01T09:29:39;10.67;;;5.37;;
19043;SDS011;9654;52.302;8.120;2023-03-01T09:32:06;7.20;;;4.80;;
19043;SDS011;9654;52.302;8.120;2023-03-01T09:34:33;10.63;;;5.10;;
19043;SDS011;9654;52.302;8.120;2023-03-01T09:37:22;8.77;;;5.70;;
19043;SDS011;9654;52.302;8.120;2023-03-01T09:39:49;11.13;;;5.73;;
19043;SDS011;9654;52.302;8.120;2023-03-01T09:42:16;10.80;;;5.30;;
19043;SDS011;9654;52.302;8.120;2023-03-01T09:44:43;11.40;;;5.37;;
19043;SDS011;9654;52.302;8.120;2023-03-01T09:47:17;12.00;;;5.33;;
19043;SDS011;9654;52.302;8.120;2023-03-01T09:49:45;7.77;;;4.87;;
19043;SDS011;9654;52.302;8.120;2023-03-01T09:52:23;7.57;;;5.10;;
19043;SDS011;9654;52.302;8.120;2023-03-01T09:54:55;12.00;;;5.63;;
19043;SDS011;9654;52.302;8.120;2023-03-01T09:57:26;10.93;;;5.13;;
19043;SDS011;9654;52.302;8.120;2023-03-01T09:59:59;10.70;;;5.73;;
19043;SDS011;9654;52.302;8.120;2023-03-01T10:02:38;10.23;;;5.63;;
19043;SDS011;9654;52.302;8.120;2023-03-01T10:05:27;8.03;;;5.47;;
19043;SDS011;9654;52.302;8.120;2023-03-01T10:08:06;10.03;;;5.67;;
19043;SDS011;9654;52.302;8.120;2023-03-01T10:10:49;8.53;;;4.50;;
19043;SDS011;9654;52.302;8.120;2023-03-01T10:13:19;9.33;;;5.43;;
19043;SDS011;9654;52.302;8.120;2023-03-01T10:15:53;9.37;;;5.43;;
19043;SDS011;9654;52.302;8.120;2023-03-01T10:18:23;10.17;;;5.10;;
19043;SDS011;9654;52.302;8.120;2023-03-01T10:20:54;7.63;;;4.63;;
19043;SDS011;9654;52.302;8.120;2023-03-01T10:23:26;10.73;;;5.10;;
19043;SDS011;9654;52.302;8.120;2023-03-01T10:26:03;8.13;;;5.00;;
19043;SDS011;9654;52.302;8.120;2023-03-01T10:28:41;9.20;;;5.23;;
19043;SDS011;9654;52.302;8.120;2023-03-01T10:31:17;7.60;;;4.63;;
19043;SDS011;9654;52.302;8.120;2023-03-01T10:33:52;9.63;;;4.80;;
19043;SDS011;9654;52.302;8.120;2023-03-01T10:36:21;6.73;;;4.33;;
19043;SDS011;9654;52.302;8.120;2023-03-01T10:38:51;6.43;;;4.50;;
19043;SDS011;9654;52.302;8.120;2023-03-01T10:41:20;7.70;;;4.83;;
19043;SDS011;9654;52.302;8.120;2023-03-01T10:43:49;9.63;;;5.07;;
19043;SDS011;9654;52.302;8.120;2023-03-01T10:46:22;5.70;;;4.07;;
19043;SDS011;9654;52.302;8.120;2023-03-01T10:51:40;12.40;;;5.63;;
19043;SDS011;9654;52.302;8.120;2023-03-01T10:54:16;8.37;;;5.23;;
19043;SDS011;9654;52.302;8.120;2023-03-01T10:56:45;11.00;;;5.80;;
19043;SDS011;9654;52.302;8.120;2023-03-01T10:59:20;12.23;;;6.13;;
19043;SDS011;9654;52.302;8.120;2023-03-01T11:02:00;8.80;;;6.17;;
19043;SDS011;9654;52.302;8.120;2023-03-01T11:04:44;13.10;;;6.40;;
19043;SDS011;9654;52.302;8.120;2023-03-01T11:07:23;8.83;;;5.70;;
19043;SDS011;9654;52.302;8.120;2023-03-01T11:09:51;9.97;;;5.70;;
19043;SDS011;9654;52.302;8.120;2023-03-01T11:12:18;9.90;;;6.37;;
19043;SDS011;9654;52.302;8.120;2023-03-01T11:14:46;11.27;;;6.00;;
19043;SDS011;9654;52.302;8.120;2023-03-01T11:17:15;9.40;;;5.53;;
19043;SDS011;9654;52.302;8.120;2023-03-01T11:19:53;13.37;;;5.83;;
19043;SDS011;9654;52.302;8.120;2023-03-01T11:22:27;8.10;;;4.87;;
19043;SDS011;9654;52.302;8.120;2023-03-01T11:24:56;8.70;;;4.90;;
19043;SDS011;9654;52.302;8.120;2023-03-01T11:27:24;7.77;;;5.47;;
19043;SDS011;9654;52.302;8.120;2023-03-01T11:29:55;7.97;;;5.23;;
19043;SDS011;9654;52.302;8.120;2023-03-01T11:32:27;6.10;;;4.77;;
19043;SDS011;9654;52.302;8.120;2023-03-01T11:35:02;9.23;;;5.30;;
19043;SDS011;9654;52.302;8.120;2023-03-01T11:37:36;8.83;;;5.07;;
19043;SDS011;9654;52.302;8.120;2023-03-01T11:40:12;11.97;;;6.07;;
19043;SDS011;9654;52.302;8.120;2023-03-01T11:42:47;7.67;;;4.70;;
19043;SDS011;9654;52.302;8.120;2023-03-01T11:45:23;5.90;;;4.37;;
19043;SDS011;9654;52.302;8.120;2023-03-01T11:47:55;9.00;;;5.70;;
19043;SDS011;9654;52.302;8.120;2023-03-01T11:50:35;9.60;;;5.57;;
19043;SDS011;9654;52.302;8.120;2023-03-01T11:53:13;7.17;;;4.40;;
19043;SDS011;9654;52.302;8.120;2023-03-01T11:56:03;8.33;;;5.13;;
19043;SDS011;9654;52.302;8.120;2023-03-01T11:58:45;7.17;;;4.37;;
19043;SDS011;9654;52.302;8.120;2023-03-01T12:01:36;7.53;;;3.70;;
19043;SDS011;9654;52.302;8.120;2023-03-01T12:07:14;6.57;;;4.17;;
19043;SDS011;9654;52.302;8.120;2023-03-01T12:09:50;6.73;;;4.23;;
19043;SDS011;9654;52.302;8.120;2023-03-01T12:12:39;7.60;;;4.43;;
19043;SDS011;9654;52.302;8.120;2023-03-01T12:18:26;7.13;;;4.10;;
19043;SDS011;9654;52.302;8.120;2023-03-01T12:21:09;6.63;;;4.50;;
19043;SDS011;9654;52.302;8.120;2023-03-01T12:23:52;8.00;;;4.60;;
19043;SDS011;9654;52.302;8.120;2023-03-01T12:26:31;5.77;;;3.97;;
19043;SDS011;9654;52.302;8.120;2023-03-01T12:29:11;7.73;;;3.90;;
19043;SDS011;9654;52.302;8.120;2023-03-01T12:31:58;7.50;;;3.83;;
19043;SDS011;9654;52.302;8.120;2023-03-01T12:34:55;7.57;;;4.23;;
19043;SDS011;9654;52.302;8.120;2023-03-01T12:37:49;5.47;;;3.53;;
19043;SDS011;9654;52.302;8.120;2023-03-01T12:40:25;5.97;;;3.70;;
19043;SDS011;9654;52.302;8.120;2023-03-01T12:43:03;5.30;;;3.40;;
19043;SDS011;9654;52.302;8.120;2023-03-01T12:45:43;18.50;;;3.50;;
19043;SDS011;9654;52.302;8.120;2023-03-01T12:48:41;5.20;;;3.23;;
19043;SDS011;9654;52.302;8.120;2023-03-01T12:51:17;5.00;;;3.33;;
19043;SDS011;9654;52.302;8.120;2023-03-01T12:53:49;5.00;;;3.17;;
19043;SDS011;9654;52.302;8.120;2023-03-01T12:56:18;5.53;;;3.60;;
19043;SDS011;9654;52.302;8.120;2023-03-01T12:58:50;5.33;;;2.83;;
19043;SDS011;9654;52.302;8.120;2023-03-01T13:01:29;10.67;;;7.83;;
19043;SDS011;9654;52.302;8.120;2023-03-01T13:06:59;5.43;;;3.27;;
19043;SDS011;9654;52.302;8.120;2023-03-01T13:09:35;6.60;;;3.50;;
19043;SDS011;9654;52.302;8.120;2023-03-01T13:15:25;4.03;;;3.10;;
19043;SDS011;9654;52.302;8.120;2023-03-01T13:18:04;7.87;;;3.67;;
19043;SDS011;9654;52.302;8.120;2023-03-01T13:20:54;4.27;;;3.43;;
19043;SDS011;9654;52.302;8.120;2023-03-01T13:23:26;3.87;;;2.87;;
19043;SDS011;9654;52.302;8.120;2023-03-01T13:28:48;3.67;;;2.93;;
19043;SDS011;9654;52.302;8.120;2023-03-01T13:37:25;8.37;;;2.90;;
19043;SDS011;9654;52.302;8.120;2023-03-01T13:39:54;6.10;;;3.30;;
19043;SDS011;9654;52.302;8.120;2023-03-01T13:42:37;5.23;;;2.97;;
19043;SDS011;9654;52.302;8.120;2023-03-01T13:45:16;5.60;;;3.07;;
19043;SDS011;9654;52.302;8.120;2023-03-01T13:47:46;4.23;;;2.67;;
19043;SDS011;9654;52.302;8.120;2023-03-01T13:50:20;2.30;;;2.10;;
19043;SDS011;9654;52.302;8.120;2023-03-01T13:52:50;3.00;;;2.37;;
19043;SDS011;9654;52.302;8.120;2023-03-01T13:55:23;6.77;;;2.80;;
19043;SDS011;9654;52.302;8.120;2023-03-01T13:57:53;3.53;;;2.97;;
19043;SDS011;9654;52.302;8.120;2023-03-01T14:00:30;8.03;;;3.00;;
19043;SDS011;9654;52.302;8.120;2023-03-01T14:03:04;3.67;;;2.47;;
19043;SDS011;9654;52.302;8.120;2023-03-01T14:05:36;5.20;;;2.53;;
19043;SDS011;9654;52.302;8.120;2023-03-01T14:08:04;6.63;;;3.00;;
19043;SDS011;9654;52.302;8.120;2023-03-01T14:10:45;5.60;;;2.90;;
19043;SDS011;9654;52.302;8.120;2023-03-01T14:13:23;3.50;;;3.00;;
19043;SDS011;9654;52.302;8.120;2023-03-01T14:16:03;6.63;;;3.50;;
19043;SDS011;9654;52.302;8.120;2023-03-01T14:18:39;7.57;;;3.10;;
19043;SDS011;9654;52.302;8.120;2023-03-01T14:21:13;4.40;;;3.10;;
19043;SDS011;9654;52.302;8.120;2023-03-01T14:23:42;4.43;;;3.00;;
19043;SDS011;9654;52.302;8.120;2023-03-01T14:26:08;4.00;;;2.93;;
19043;SDS011;9654;52.302;8.120;2023-03-01T14:28:37;5.93;;;3.20;;
19043;SDS011;9654;52.302;8.120;2023-03-01T14:33:58;4.63;;;3.17;;
19043;SDS011;9654;52.302;8.120;2023-03-01T14:36:28;6.77;;;3.80;;
19043;SDS011;9654;52.302;8.120;2023-03-01T14:38:56;5.93;;;3.33;;
19043;SDS011;9654;52.302;8.120;2023-03-01T14:41:30;4.20;;;2.97;;
19043;SDS011;9654;52.302;8.120;2023-03-01T14:43:59;4.13;;;3.03;;
19043;SDS011;9654;52.302;8.120;2023-03-01T14:46:28;7.03;;;3.43;;
19043;SDS011;9654;52.302;8.120;2023-03-01T14:49:01;4.03;;;3.07;;
19043;SDS011;9654;52.302;8.120;2023-03-01T14:51:31;7.50;;;3.30;;
19043;SDS011;9654;52.302;8.120;2023-03-01T14:54:02;4.60;;;3.23;;
19043;SDS011;9654;52.302;8.120;2023-03-01T14:56:45;5.03;;;2.57;;
19043;SDS011;9654;52.302;8.120;2023-03-01T14:59:12;4.73;;;2.87;;
19043;SDS011;9654;52.302;8.120;2023-03-01T15:01:40;9.27;;;2.83;;
19043;SDS011;9654;52.302;8.120;2023-03-01T15:04:09;5.03;;;2.67;;
19043;SDS011;9654;52.302;8.120;2023-03-01T15:06:41;4.00;;;2.33;;
19043;SDS011;9654;52.302;8.120;2023-03-01T15:09:11;4.00;;;2.67;;
19043;SDS011;9654;52.302;8.120;2023-03-01T15:11:40;5.30;;;2.40;;
19043;SDS011;9654;52.302;8.120;2023-03-01T15:17:14;3.30;;;2.23;;
19043;SDS011;9654;52.302;8.120;2023-03-01T15:19:49;3.03;;;1.97;;
19043;SDS011;9654;52.302;8.120;2023-03-01T15:22:18;3.50;;;2.17;;
19043;SDS011;9654;52.302;8.120;2023-03-01T15:24:48;2.57;;;2.07;;
19043;SDS011;9654;52.302;8.120;2023-03-01T15:27:16;6.13;;;2.20;;
19043;SDS011;9654;52.302;8.120;2023-03-01T15:29:48;2.83;;;2.20;;
19043;SDS011;9654;52.302;8.120;2023-03-01T15:32:26;5.30;;;2.10;;
19043;SDS011;9654;52.302;8.120;2023-03-01T15:34:56;3.67;;;2.07;;
19043;SDS011;9654;52.302;8.120;2023-03-01T15:37:40;13.03;;;5.47;;
19043;SDS011;9654;52.302;8.120;2023-03-01T15:40:17;2.80;;;2.37;;